Flight Track Log - Related Links

Times and Time Zones

All times are in EDT time to prevent confusion due to time zone crossing. See the N209EA flight status page for this flight to view local times or setup timezone preferences in your user account.

Time Position Orientation Groundspeed Altitude Reporting Facility
EDT Latitude Longitude Course Direction KTS MPH feet Rate Location/Type
Fri 01:17:27 PM 35.7683 -84.0106 99° East 160 184 2,700  Level Atlanta Center
Fri 01:18:27 PM 35.7619 -83.9619 99° East 174 200 5,300 2,350 Climbing Atlanta Center
Fri 01:19:27 PM 35.7850 -83.9108 61° Northeast 179 206 7,400 1,900 Climbing Atlanta Center
Fri 01:20:27 PM 35.8161 -83.8619 52° Northeast 185 213 9,100 1,700 Climbing Atlanta Center
Fri 01:21:27 PM 35.8475 -83.8056 56° Northeast 185 213 10,800 1,600 Climbing Atlanta Center
Fri 01:22:27 PM 35.8744 -83.7467 61° Northeast 190 219 12,300 1,500 Climbing Atlanta Center
Fri 01:23:27 PM 35.8783 -83.6747 86° East 190 219 13,800 1,500 Climbing Atlanta Center
Fri 01:24:27 PM 35.8864 -83.6006 82° East 210 242 15,300 1,400 Climbing Atlanta Center
Fri 01:25:27 PM 35.8944 -83.5261 82° East 216 249 16,600 1,250 Climbing Atlanta Center
Fri 01:26:27 PM 35.9003 -83.4492 85° East 221 254 17,800 1,100 Climbing Atlanta Center
Fri 01:27:27 PM 35.9083 -83.3697 83° East 221 254 18,800 1,050 Climbing Atlanta Center
Fri 01:28:27 PM 35.9161 -83.2875 83° East 227 261 19,900 1,050 Climbing Atlanta Center
Fri 01:29:27 PM 35.9200 -83.2106 86° East 238 274 20,900 550 Climbing Atlanta Center
Fri 01:30:27 PM 35.9275 -83.1206 84° East 252 290 21,000 50 Climbing Atlanta Center
Fri 01:31:27 PM 35.9392 -83.0156 82° East 285 328 21,000  Level Atlanta Center
Fri 01:32:27 PM 35.9508 -82.9075 82° East 313 360 21,000  Level Atlanta Center
Fri 01:33:27 PM 35.9706 -82.7994 77° East 318 366 21,000  Level Atlanta Center
Fri 01:34:27 PM 35.9903 -82.6889 78° East 318 366 21,000  Level Atlanta Center
Fri 01:35:27 PM 36.0142 -82.5781 75° East 318 366 21,000  Level Atlanta Center
Fri 01:36:27 PM 36.0358 -82.4697 76° East 324 373 21,000  Level Atlanta Center
Fri 01:37:27 PM 36.0592 -82.3589 75° East 324 373 21,000  Level Atlanta Center
Fri 01:38:27 PM 36.0806 -82.2481 77° East 324 373 21,000  Level Atlanta Center
Fri 01:39:27 PM 36.1000 -82.1397 77° East 324 373 21,000  Level Atlanta Center
Fri 01:40:27 PM 36.1125 -82.0236 82° East 324 373 21,000  Level Atlanta Center
Fri 01:41:27 PM 36.1317 -81.9128 78° East 324 373 21,000 -450 Level Atlanta Center
Fri 01:42:27 PM 36.1400 -81.7967 85° East 329 379 20,100 -1,350 Descending Atlanta Center
Fri 01:43:27 PM 36.1397 -81.6708 90° East 342 394 18,300 -1,550 Descending Atlanta Center
Fri 01:44:27 PM 36.1372 -81.5397 91° East 361 415 17,000 -650 Descending Atlanta Center
Fri 01:45:27 PM 36.1386 -81.4164 89° East 366 421 17,000 50 Level Atlanta Center
Fri 01:46:27 PM 36.1383 -81.3031 90° East 347 399 17,100 -600 Climbing Atlanta Center
Fri 01:47:27 PM 36.1378 -81.1850 90° East 341 392 15,800 -1,300 Descending Atlanta Center
Fri 01:48:27 PM 36.1369 -81.0617 90° East 347 399 14,500 -1,350 Descending Atlanta Center
Fri 01:49:27 PM 36.1381 -80.9381 89° East 352 405 13,100 -1,450 Descending Atlanta Center
Fri 01:50:27 PM 36.1350 -80.8175 92° East 352 405 11,600 -700 Descending Atlanta Center
Fri 01:52:27 PM 36.1200 -80.5764 94° East 333 383 11,000 -200 Descending Atlanta Center
Fri 01:53:27 PM 36.1044 -80.4717 100° East 321 369 11,000 -800 Level Atlanta Center
Fri 01:54:27 PM 36.0722 -80.3703 111° Southeast 316 364 9,400  Descending Atlanta Center
Fri 01:55:27 PM 36.0403 -80.2767 113° Southeast 305 351 11,000 -1,750 Climbing Atlanta Center
Fri 01:56:27 PM 35.9919 -80.2019 129° Southeast 282 325 5,900 -3,400 Descending Atlanta Center
Fri 01:57:27 PM 35.9831 -80.1178 97° East 246 283 4,200 2,550 Descending Atlanta Center
Fri 01:58:27 PM 36.0292 -80.0539 48° Northeast 212 244 11,000 -1,050 Climbing Atlanta Center
Fri 01:59:27 PM 36.0628 -80.0033 51° Northeast 203 234 2,100 -4,900 Descending Atlanta Center
Fri 02:00:27 PM 36.0908 -79.9686 45° Northeast 168 193 1,200 -900 Descending Atlanta Center
Fri 02:02:00 PM 36.1000 -79.9333 28° Northeast  Level FlightAware Approximate
Fri 02:09:00 PM 36.1013 -79.9411 28° Northeast  Level Estimated

Login

Don't have an account? Register now (free) for customized features, flight alerts, and more!